sensor_id;sensor_type;location;lat;lon;timestamp;P1;durP1;ratioP1;P2;durP2;ratioP2
15177;SDS011;7689;53.612;-2.416;2022-10-31T00:01:11;7.30;;;2.67;;
15177;SDS011;7689;53.612;-2.416;2022-10-31T00:03:40;11.57;;;2.93;;
15177;SDS011;7689;53.612;-2.416;2022-10-31T00:06:06;10.90;;;2.87;;
15177;SDS011;7689;53.612;-2.416;2022-10-31T00:08:31;8.60;;;2.93;;
15177;SDS011;7689;53.612;-2.416;2022-10-31T00:10:57;7.13;;;2.63;;
15177;SDS011;7689;53.612;-2.416;2022-10-31T00:13:23;6.27;;;2.50;;
15177;SDS011;7689;53.612;-2.416;2022-10-31T00:15:48;7.77;;;2.57;;
15177;SDS011;7689;53.612;-2.416;2022-10-31T00:18:14;10.07;;;3.03;;
15177;SDS011;7689;53.612;-2.416;2022-10-31T00:20:40;8.40;;;2.80;;
15177;SDS011;7689;53.612;-2.416;2022-10-31T00:23:05;13.23;;;3.50;;
15177;SDS011;7689;53.612;-2.416;2022-10-31T00:25:35;12.83;;;2.90;;
15177;SDS011;7689;53.612;-2.416;2022-10-31T00:28:03;12.37;;;3.37;;
15177;SDS011;7689;53.612;-2.416;2022-10-31T00:30:30;9.20;;;3.63;;
15177;SDS011;7689;53.612;-2.416;2022-10-31T00:32:56;10.67;;;2.70;;
15177;SDS011;7689;53.612;-2.416;2022-10-31T00:35:21;7.17;;;2.77;;
15177;SDS011;7689;53.612;-2.416;2022-10-31T00:37:47;13.00;;;3.17;;
15177;SDS011;7689;53.612;-2.416;2022-10-31T00:40:13;8.00;;;2.83;;
15177;SDS011;7689;53.612;-2.416;2022-10-31T00:42:39;10.50;;;3.77;;
15177;SDS011;7689;53.612;-2.416;2022-10-31T00:45:06;10.30;;;3.23;;
15177;SDS011;7689;53.612;-2.416;2022-10-31T00:47:33;8.37;;;3.03;;
15177;SDS011;7689;53.612;-2.416;2022-10-31T00:49:59;11.07;;;3.53;;
15177;SDS011;7689;53.612;-2.416;2022-10-31T00:52:25;9.20;;;2.73;;
15177;SDS011;7689;53.612;-2.416;2022-10-31T00:54:50;15.77;;;3.43;;
15177;SDS011;7689;53.612;-2.416;2022-10-31T00:57:16;15.60;;;3.80;;
15177;SDS011;7689;53.612;-2.416;2022-10-31T00:59:42;11.43;;;3.03;;
15177;SDS011;7689;53.612;-2.416;2022-10-31T01:02:07;10.33;;;2.97;;
15177;SDS011;7689;53.612;-2.416;2022-10-31T01:04:33;10.70;;;2.87;;
15177;SDS011;7689;53.612;-2.416;2022-10-31T01:06:58;10.63;;;3.10;;
15177;SDS011;7689;53.612;-2.416;2022-10-31T01:09:24;16.03;;;2.90;;
15177;SDS011;7689;53.612;-2.416;2022-10-31T01:11:50;12.10;;;3.50;;
15177;SDS011;7689;53.612;-2.416;2022-10-31T01:14:15;7.47;;;2.73;;
15177;SDS011;7689;53.612;-2.416;2022-10-31T01:16:41;12.13;;;3.30;;
15177;SDS011;7689;53.612;-2.416;2022-10-31T01:19:07;8.17;;;2.77;;
15177;SDS011;7689;53.612;-2.416;2022-10-31T01:21:32;10.80;;;3.20;;
15177;SDS011;7689;53.612;-2.416;2022-10-31T01:23:58;10.37;;;3.13;;
15177;SDS011;7689;53.612;-2.416;2022-10-31T01:26:28;11.23;;;3.23;;
15177;SDS011;7689;53.612;-2.416;2022-10-31T01:28:56;14.93;;;3.80;;
15177;SDS011;7689;53.612;-2.416;2022-10-31T01:31:24;12.13;;;3.23;;
15177;SDS011;7689;53.612;-2.416;2022-10-31T01:33:53;11.00;;;3.00;;
15177;SDS011;7689;53.612;-2.416;2022-10-31T01:36:20;7.57;;;3.07;;
15177;SDS011;7689;53.612;-2.416;2022-10-31T01:38:52;12.93;;;3.80;;
15177;SDS011;7689;53.612;-2.416;2022-10-31T01:41:21;7.80;;;3.30;;
15177;SDS011;7689;53.612;-2.416;2022-10-31T01:43:53;8.93;;;3.07;;
15177;SDS011;7689;53.612;-2.416;2022-10-31T01:46:29;11.20;;;2.80;;
15177;SDS011;7689;53.612;-2.416;2022-10-31T01:49:04;10.43;;;3.83;;
15177;SDS011;7689;53.612;-2.416;2022-10-31T01:51:36;11.33;;;3.00;;
15177;SDS011;7689;53.612;-2.416;2022-10-31T01:54:08;11.27;;;3.77;;
15177;SDS011;7689;53.612;-2.416;2022-10-31T01:56:39;14.60;;;3.40;;
15177;SDS011;7689;53.612;-2.416;2022-10-31T01:59:07;10.87;;;3.47;;
15177;SDS011;7689;53.612;-2.416;2022-10-31T02:01:36;16.33;;;3.33;;
15177;SDS011;7689;53.612;-2.416;2022-10-31T02:04:02;15.63;;;4.23;;
15177;SDS011;7689;53.612;-2.416;2022-10-31T02:07:02;10.47;;;3.70;;
15177;SDS011;7689;53.612;-2.416;2022-10-31T02:09:23;12.90;;;3.80;;
15177;SDS011;7689;53.612;-2.416;2022-10-31T02:11:52;14.20;;;3.40;;
15177;SDS011;7689;53.612;-2.416;2022-10-31T02:14:22;14.77;;;3.30;;
15177;SDS011;7689;53.612;-2.416;2022-10-31T02:16:50;13.87;;;2.97;;
15177;SDS011;7689;53.612;-2.416;2022-10-31T02:19:18;10.20;;;2.87;;
15177;SDS011;7689;53.612;-2.416;2022-10-31T02:22:02;15.03;;;3.47;;
15177;SDS011;7689;53.612;-2.416;2022-10-31T02:25:03;14.03;;;3.23;;
15177;SDS011;7689;53.612;-2.416;2022-10-31T02:34:16;8.83;;;3.07;;
15177;SDS011;7689;53.612;-2.416;2022-10-31T02:40:04;18.77;;;3.67;;
15177;SDS011;7689;53.612;-2.416;2022-10-31T02:42:46;21.60;;;4.33;;
15177;SDS011;7689;53.612;-2.416;2022-10-31T02:45:26;12.00;;;3.17;;
15177;SDS011;7689;53.612;-2.416;2022-10-31T02:48:02;12.40;;;3.67;;
15177;SDS011;7689;53.612;-2.416;2022-10-31T02:50:34;11.37;;;4.13;;
15177;SDS011;7689;53.612;-2.416;2022-10-31T02:53:02;10.50;;;3.63;;
15177;SDS011;7689;53.612;-2.416;2022-10-31T02:57:58;13.27;;;3.37;;
15177;SDS011;7689;53.612;-2.416;2022-10-31T03:00:35;12.00;;;3.90;;
15177;SDS011;7689;53.612;-2.416;2022-10-31T03:03:20;13.03;;;3.10;;
15177;SDS011;7689;53.612;-2.416;2022-10-31T03:06:05;12.20;;;3.57;;
15177;SDS011;7689;53.612;-2.416;2022-10-31T03:09:22;12.70;;;3.30;;
15177;SDS011;7689;53.612;-2.416;2022-10-31T03:11:29;14.00;;;3.80;;
15177;SDS011;7689;53.612;-2.416;2022-10-31T03:14:10;11.60;;;3.43;;
15177;SDS011;7689;53.612;-2.416;2022-10-31T03:16:49;15.80;;;3.43;;
15177;SDS011;7689;53.612;-2.416;2022-10-31T03:19:22;15.97;;;3.40;;
15177;SDS011;7689;53.612;-2.416;2022-10-31T03:22:17;15.03;;;3.83;;
15177;SDS011;7689;53.612;-2.416;2022-10-31T03:24:47;8.33;;;3.23;;
15177;SDS011;7689;53.612;-2.416;2022-10-31T03:27:17;16.17;;;3.90;;
15177;SDS011;7689;53.612;-2.416;2022-10-31T03:29:47;14.50;;;3.50;;
15177;SDS011;7689;53.612;-2.416;2022-10-31T03:32:38;17.97;;;3.80;;
15177;SDS011;7689;53.612;-2.416;2022-10-31T03:35:05;16.07;;;4.40;;
15177;SDS011;7689;53.612;-2.416;2022-10-31T03:37:33;12.83;;;3.43;;
15177;SDS011;7689;53.612;-2.416;2022-10-31T03:40:04;13.83;;;3.93;;
15177;SDS011;7689;53.612;-2.416;2022-10-31T03:42:33;15.07;;;3.97;;
15177;SDS011;7689;53.612;-2.416;2022-10-31T03:45:10;12.07;;;3.87;;
15177;SDS011;7689;53.612;-2.416;2022-10-31T03:47:39;12.23;;;3.87;;
15177;SDS011;7689;53.612;-2.416;2022-10-31T03:50:06;13.93;;;3.67;;
15177;SDS011;7689;53.612;-2.416;2022-10-31T03:52:35;13.30;;;4.63;;
15177;SDS011;7689;53.612;-2.416;2022-10-31T03:55:18;18.10;;;3.93;;
15177;SDS011;7689;53.612;-2.416;2022-10-31T03:58:10;15.07;;;3.73;;
15177;SDS011;7689;53.612;-2.416;2022-10-31T04:00:48;17.80;;;4.30;;
15177;SDS011;7689;53.612;-2.416;2022-10-31T04:03:18;16.07;;;4.10;;
15177;SDS011;7689;53.612;-2.416;2022-10-31T04:05:53;11.00;;;3.70;;
15177;SDS011;7689;53.612;-2.416;2022-10-31T04:08:24;13.07;;;4.30;;
15177;SDS011;7689;53.612;-2.416;2022-10-31T04:10:55;21.50;;;4.53;;
15177;SDS011;7689;53.612;-2.416;2022-10-31T04:13:24;12.73;;;3.77;;
15177;SDS011;7689;53.612;-2.416;2022-10-31T04:15:53;11.87;;;3.50;;
15177;SDS011;7689;53.612;-2.416;2022-10-31T04:18:22;14.60;;;4.20;;
15177;SDS011;7689;53.612;-2.416;2022-10-31T04:20:48;16.57;;;3.87;;
15177;SDS011;7689;53.612;-2.416;2022-10-31T04:25:44;11.87;;;3.87;;
15177;SDS011;7689;53.612;-2.416;2022-10-31T04:28:10;16.50;;;3.77;;
15177;SDS011;7689;53.612;-2.416;2022-10-31T04:30:35;10.23;;;3.67;;
15177;SDS011;7689;53.612;-2.416;2022-10-31T04:33:01;11.50;;;3.73;;
15177;SDS011;7689;53.612;-2.416;2022-10-31T04:35:27;13.33;;;3.63;;
15177;SDS011;7689;53.612;-2.416;2022-10-31T04:37:52;14.93;;;3.27;;
15177;SDS011;7689;53.612;-2.416;2022-10-31T04:40:18;16.80;;;3.70;;
15177;SDS011;7689;53.612;-2.416;2022-10-31T04:42:43;15.10;;;4.47;;
15177;SDS011;7689;53.612;-2.416;2022-10-31T04:45:09;17.17;;;4.67;;
15177;SDS011;7689;53.612;-2.416;2022-10-31T04:47:35;17.27;;;3.97;;
15177;SDS011;7689;53.612;-2.416;2022-10-31T04:50:01;16.90;;;4.33;;
15177;SDS011;7689;53.612;-2.416;2022-10-31T04:52:27;15.10;;;3.73;;
15177;SDS011;7689;53.612;-2.416;2022-10-31T04:54:53;12.03;;;3.30;;
15177;SDS011;7689;53.612;-2.416;2022-10-31T04:57:18;16.77;;;4.03;;
15177;SDS011;7689;53.612;-2.416;2022-10-31T04:59:44;13.17;;;3.67;;
15177;SDS011;7689;53.612;-2.416;2022-10-31T05:02:09;21.07;;;4.00;;
15177;SDS011;7689;53.612;-2.416;2022-10-31T05:04:35;18.83;;;4.53;;
15177;SDS011;7689;53.612;-2.416;2022-10-31T05:07:01;17.53;;;4.30;;
15177;SDS011;7689;53.612;-2.416;2022-10-31T05:09:26;16.73;;;3.57;;
15177;SDS011;7689;53.612;-2.416;2022-10-31T05:11:52;12.00;;;3.33;;
15177;SDS011;7689;53.612;-2.416;2022-10-31T05:14:18;18.20;;;3.80;;
15177;SDS011;7689;53.612;-2.416;2022-10-31T05:16:43;14.13;;;4.10;;
15177;SDS011;7689;53.612;-2.416;2022-10-31T05:19:09;13.47;;;3.87;;
15177;SDS011;7689;53.612;-2.416;2022-10-31T05:21:34;15.10;;;3.73;;
15177;SDS011;7689;53.612;-2.416;2022-10-31T05:24:00;20.70;;;4.23;;
15177;SDS011;7689;53.612;-2.416;2022-10-31T05:26:26;17.07;;;4.13;;
15177;SDS011;7689;53.612;-2.416;2022-10-31T05:28:51;14.53;;;4.30;;
15177;SDS011;7689;53.612;-2.416;2022-10-31T05:31:17;17.47;;;4.33;;
15177;SDS011;7689;53.612;-2.416;2022-10-31T05:33:42;15.53;;;3.90;;
15177;SDS011;7689;53.612;-2.416;2022-10-31T05:36:08;11.53;;;3.80;;
15177;SDS011;7689;53.612;-2.416;2022-10-31T05:38:34;18.80;;;4.20;;
15177;SDS011;7689;53.612;-2.416;2022-10-31T05:41:00;18.53;;;4.77;;
15177;SDS011;7689;53.612;-2.416;2022-10-31T05:43:26;11.43;;;3.60;;
15177;SDS011;7689;53.612;-2.416;2022-10-31T05:45:52;12.13;;;3.80;;
15177;SDS011;7689;53.612;-2.416;2022-10-31T05:48:19;14.53;;;3.67;;
15177;SDS011;7689;53.612;-2.416;2022-10-31T05:50:44;17.23;;;3.30;;
15177;SDS011;7689;53.612;-2.416;2022-10-31T05:53:12;17.77;;;3.73;;
15177;SDS011;7689;53.612;-2.416;2022-10-31T05:55:38;18.23;;;4.47;;
15177;SDS011;7689;53.612;-2.416;2022-10-31T05:58:05;22.07;;;4.90;;
15177;SDS011;7689;53.612;-2.416;2022-10-31T06:00:31;13.40;;;4.40;;
15177;SDS011;7689;53.612;-2.416;2022-10-31T06:03:03;17.60;;;4.07;;
15177;SDS011;7689;53.612;-2.416;2022-10-31T06:05:31;13.63;;;4.20;;
15177;SDS011;7689;53.612;-2.416;2022-10-31T06:07:57;17.07;;;4.50;;
15177;SDS011;7689;53.612;-2.416;2022-10-31T06:10:23;15.33;;;3.87;;
15177;SDS011;7689;53.612;-2.416;2022-10-31T06:12:48;15.33;;;3.70;;
15177;SDS011;7689;53.612;-2.416;2022-10-31T06:15:14;15.97;;;3.67;;
15177;SDS011;7689;53.612;-2.416;2022-10-31T06:17:40;12.00;;;3.40;;
15177;SDS011;7689;53.612;-2.416;2022-10-31T06:20:06;17.90;;;3.60;;
15177;SDS011;7689;53.612;-2.416;2022-10-31T06:22:32;12.47;;;3.30;;
15177;SDS011;7689;53.612;-2.416;2022-10-31T06:24:58;20.87;;;3.50;;
15177;SDS011;7689;53.612;-2.416;2022-10-31T06:27:24;14.57;;;4.03;;
15177;SDS011;7689;53.612;-2.416;2022-10-31T06:29:50;13.10;;;3.33;;
15177;SDS011;7689;53.612;-2.416;2022-10-31T06:32:15;14.63;;;3.50;;
15177;SDS011;7689;53.612;-2.416;2022-10-31T06:34:42;15.27;;;3.67;;
15177;SDS011;7689;53.612;-2.416;2022-10-31T06:37:09;21.57;;;3.87;;
15177;SDS011;7689;53.612;-2.416;2022-10-31T06:39:36;11.57;;;3.30;;
15177;SDS011;7689;53.612;-2.416;2022-10-31T06:42:02;15.03;;;3.90;;
15177;SDS011;7689;53.612;-2.416;2022-10-31T06:44:28;13.97;;;3.53;;
15177;SDS011;7689;53.612;-2.416;2022-10-31T06:46:54;11.63;;;3.50;;
15177;SDS011;7689;53.612;-2.416;2022-10-31T06:49:19;18.83;;;3.70;;
15177;SDS011;7689;53.612;-2.416;2022-10-31T06:51:49;15.00;;;3.70;;
15177;SDS011;7689;53.612;-2.416;2022-10-31T06:54:15;13.33;;;3.77;;
15177;SDS011;7689;53.612;-2.416;2022-10-31T06:56:41;16.10;;;3.73;;
15177;SDS011;7689;53.612;-2.416;2022-10-31T06:59:07;17.37;;;3.67;;
15177;SDS011;7689;53.612;-2.416;2022-10-31T07:01:33;15.57;;;3.40;;
15177;SDS011;7689;53.612;-2.416;2022-10-31T07:03:58;20.87;;;4.00;;
15177;SDS011;7689;53.612;-2.416;2022-10-31T07:06:24;12.70;;;3.57;;
15177;SDS011;7689;53.612;-2.416;2022-10-31T07:08:50;17.67;;;3.60;;
15177;SDS011;7689;53.612;-2.416;2022-10-31T07:11:15;16.90;;;3.70;;
15177;SDS011;7689;53.612;-2.416;2022-10-31T07:13:41;11.53;;;3.50;;
15177;SDS011;7689;53.612;-2.416;2022-10-31T07:16:07;17.13;;;4.23;;
15177;SDS011;7689;53.612;-2.416;2022-10-31T07:18:33;13.40;;;3.27;;
15177;SDS011;7689;53.612;-2.416;2022-10-31T07:20:59;16.30;;;4.47;;
15177;SDS011;7689;53.612;-2.416;2022-10-31T07:23:25;11.07;;;3.53;;
15177;SDS011;7689;53.612;-2.416;2022-10-31T07:25:57;11.87;;;3.57;;
15177;SDS011;7689;53.612;-2.416;2022-10-31T07:28:24;19.67;;;4.03;;
15177;SDS011;7689;53.612;-2.416;2022-10-31T07:30:51;17.63;;;4.43;;
15177;SDS011;7689;53.612;-2.416;2022-10-31T07:33:18;11.73;;;3.53;;
15177;SDS011;7689;53.612;-2.416;2022-10-31T07:35:43;21.47;;;3.90;;
15177;SDS011;7689;53.612;-2.416;2022-10-31T07:38:10;15.37;;;3.37;;
15177;SDS011;7689;53.612;-2.416;2022-10-31T07:40:36;14.87;;;3.60;;
15177;SDS011;7689;53.612;-2.416;2022-10-31T07:43:02;17.10;;;3.70;;
15177;SDS011;7689;53.612;-2.416;2022-10-31T07:45:28;15.57;;;3.47;;
15177;SDS011;7689;53.612;-2.416;2022-10-31T07:47:54;16.43;;;3.40;;
15177;SDS011;7689;53.612;-2.416;2022-10-31T07:50:20;18.53;;;3.37;;
15177;SDS011;7689;53.612;-2.416;2022-10-31T07:52:47;13.03;;;4.10;;
15177;SDS011;7689;53.612;-2.416;2022-10-31T07:55:22;11.53;;;3.30;;
15177;SDS011;7689;53.612;-2.416;2022-10-31T07:57:55;14.80;;;3.87;;
15177;SDS011;7689;53.612;-2.416;2022-10-31T08:00:21;11.07;;;3.50;;
15177;SDS011;7689;53.612;-2.416;2022-10-31T08:02:47;15.70;;;3.87;;
15177;SDS011;7689;53.612;-2.416;2022-10-31T08:05:13;12.17;;;3.47;;
15177;SDS011;7689;53.612;-2.416;2022-10-31T08:07:38;18.33;;;4.27;;
15177;SDS011;7689;53.612;-2.416;2022-10-31T08:10:04;12.07;;;3.77;;
15177;SDS011;7689;53.612;-2.416;2022-10-31T08:12:30;11.13;;;3.53;;
15177;SDS011;7689;53.612;-2.416;2022-10-31T08:14:56;14.70;;;3.60;;
15177;SDS011;7689;53.612;-2.416;2022-10-31T08:17:21;11.47;;;3.67;;
15177;SDS011;7689;53.612;-2.416;2022-10-31T08:19:47;9.07;;;3.10;;
15177;SDS011;7689;53.612;-2.416;2022-10-31T08:22:13;10.10;;;3.13;;
15177;SDS011;7689;53.612;-2.416;2022-10-31T08:24:38;13.67;;;3.53;;
15177;SDS011;7689;53.612;-2.416;2022-10-31T08:27:04;15.37;;;3.30;;
15177;SDS011;7689;53.612;-2.416;2022-10-31T08:29:29;13.77;;;3.03;;
15177;SDS011;7689;53.612;-2.416;2022-10-31T08:31:57;10.40;;;3.80;;
15177;SDS011;7689;53.612;-2.416;2022-10-31T08:34:23;12.07;;;3.70;;
15177;SDS011;7689;53.612;-2.416;2022-10-31T08:36:49;10.30;;;3.87;;
15177;SDS011;7689;53.612;-2.416;2022-10-31T08:39:15;14.87;;;3.60;;
15177;SDS011;7689;53.612;-2.416;2022-10-31T08:41:40;15.27;;;3.50;;
15177;SDS011;7689;53.612;-2.416;2022-10-31T08:44:06;12.53;;;3.37;;
15177;SDS011;7689;53.612;-2.416;2022-10-31T08:46:31;10.38;;;3.80;;
15177;SDS011;7689;53.612;-2.416;2022-10-31T08:48:57;11.75;;;3.33;;
15177;SDS011;7689;53.612;-2.416;2022-10-31T08:51:23;14.47;;;3.50;;
15177;SDS011;7689;53.612;-2.416;2022-10-31T08:53:48;13.65;;;3.55;;
15177;SDS011;7689;53.612;-2.416;2022-10-31T08:56:14;7.25;;;2.95;;
15177;SDS011;7689;53.612;-2.416;2022-10-31T08:58:40;13.77;;;3.23;;
15177;SDS011;7689;53.612;-2.416;2022-10-31T09:01:05;10.80;;;3.47;;
15177;SDS011;7689;53.612;-2.416;2022-10-31T09:03:31;10.83;;;3.10;;
15177;SDS011;7689;53.612;-2.416;2022-10-31T09:05:58;14.70;;;3.17;;
15177;SDS011;7689;53.612;-2.416;2022-10-31T09:08:25;9.32;;;3.15;;
15177;SDS011;7689;53.612;-2.416;2022-10-31T09:10:51;11.00;;;3.65;;
15177;SDS011;7689;53.612;-2.416;2022-10-31T09:13:19;10.18;;;2.75;;
15177;SDS011;7689;53.612;-2.416;2022-10-31T09:15:47;13.23;;;3.72;;
15177;SDS011;7689;53.612;-2.416;2022-10-31T09:18:14;10.65;;;2.83;;
15177;SDS011;7689;53.612;-2.416;2022-10-31T09:20:42;10.57;;;2.97;;
15177;SDS011;7689;53.612;-2.416;2022-10-31T09:23:13;13.13;;;3.35;;
15177;SDS011;7689;53.612;-2.416;2022-10-31T09:25:39;11.10;;;3.35;;
15177;SDS011;7689;53.612;-2.416;2022-10-31T09:28:06;16.08;;;3.67;;
15177;SDS011;7689;53.612;-2.416;2022-10-31T09:30:34;15.18;;;4.00;;
15177;SDS011;7689;53.612;-2.416;2022-10-31T09:33:01;11.80;;;3.30;;
15177;SDS011;7689;53.612;-2.416;2022-10-31T09:35:28;9.85;;;3.03;;
15177;SDS011;7689;53.612;-2.416;2022-10-31T09:38:01;11.70;;;3.00;;
15177;SDS011;7689;53.612;-2.416;2022-10-31T09:40:56;10.15;;;3.20;;
15177;SDS011;7689;53.612;-2.416;2022-10-31T09:54:40;8.57;;;2.50;;
15177;SDS011;7689;53.612;-2.416;2022-10-31T09:57:12;9.82;;;2.85;;
15177;SDS011;7689;53.612;-2.416;2022-10-31T09:59:40;12.20;;;2.80;;
15177;SDS011;7689;53.612;-2.416;2022-10-31T10:02:22;8.40;;;2.60;;
15177;SDS011;7689;53.612;-2.416;2022-10-31T10:10:02;9.85;;;2.78;;
15177;SDS011;7689;53.612;-2.416;2022-10-31T10:16:12;8.50;;;2.40;;
15177;SDS011;7689;53.612;-2.416;2022-10-31T10:33:08;12.23;;;2.72;;
15177;SDS011;7689;53.612;-2.416;2022-10-31T10:35:48;8.25;;;2.83;;
15177;SDS011;7689;53.612;-2.416;2022-10-31T10:40:49;9.48;;;2.47;;
15177;SDS011;7689;53.612;-2.416;2022-10-31T10:51:42;7.43;;;2.85;;
15177;SDS011;7689;53.612;-2.416;2022-10-31T11:00:52;9.63;;;3.60;;
15177;SDS011;7689;53.612;-2.416;2022-10-31T11:02:57;9.30;;;2.70;;
15177;SDS011;7689;53.612;-2.416;2022-10-31T11:08:11;10.35;;;2.60;;
15177;SDS011;7689;53.612;-2.416;2022-10-31T11:10:59;10.23;;;2.60;;
15177;SDS011;7689;53.612;-2.416;2022-10-31T11:13:26;9.85;;;2.95;;
15177;SDS011;7689;53.612;-2.416;2022-10-31T11:15:57;8.15;;;2.65;;
15177;SDS011;7689;53.612;-2.416;2022-10-31T11:18:27;9.13;;;2.50;;
15177;SDS011;7689;53.612;-2.416;2022-10-31T11:20:56;9.10;;;2.75;;
15177;SDS011;7689;53.612;-2.416;2022-10-31T11:23:24;8.10;;;2.72;;
15177;SDS011;7689;53.612;-2.416;2022-10-31T11:25:54;7.85;;;3.35;;
15177;SDS011;7689;53.612;-2.416;2022-10-31T11:28:30;7.70;;;2.90;;
15177;SDS011;7689;53.612;-2.416;2022-10-31T11:31:00;13.98;;;4.07;;
15177;SDS011;7689;53.612;-2.416;2022-10-31T11:36:04;10.27;;;2.70;;
15177;SDS011;7689;53.612;-2.416;2022-10-31T11:38:42;11.10;;;3.03;;
15177;SDS011;7689;53.612;-2.416;2022-10-31T11:41:13;8.98;;;2.72;;
15177;SDS011;7689;53.612;-2.416;2022-10-31T11:43:57;9.32;;;3.03;;
15177;SDS011;7689;53.612;-2.416;2022-10-31T11:46:37;10.05;;;2.72;;
15177;SDS011;7689;53.612;-2.416;2022-10-31T11:49:11;6.30;;;3.10;;
15177;SDS011;7689;53.612;-2.416;2022-10-31T11:51:41;11.48;;;2.72;;
15177;SDS011;7689;53.612;-2.416;2022-10-31T11:54:15;9.98;;;3.17;;
15177;SDS011;7689;53.612;-2.416;2022-10-31T11:56:52;12.63;;;3.25;;
15177;SDS011;7689;53.612;-2.416;2022-10-31T11:59:21;11.32;;;2.50;;
15177;SDS011;7689;53.612;-2.416;2022-10-31T12:01:56;10.80;;;3.17;;
15177;SDS011;7689;53.612;-2.416;2022-10-31T12:04:29;6.47;;;2.83;;
15177;SDS011;7689;53.612;-2.416;2022-10-31T12:07:00;0.25;;;0.25;;
15177;SDS011;7689;53.612;-2.416;2022-10-31T12:09:29;0.25;;;0.25;;
15177;SDS011;7689;53.612;-2.416;2022-10-31T12:17:19;0.60;;;0.60;;
15177;SDS011;7689;53.612;-2.416;2022-10-31T12:26:06;6.93;;;2.40;;
15177;SDS011;7689;53.612;-2.416;2022-10-31T12:41:51;8.13;;;2.47;;
15177;SDS011;7689;53.612;-2.416;2022-10-31T12:53:26;7.07;;;2.45;;
15177;SDS011;7689;53.612;-2.416;2022-10-31T13:01:35;6.70;;;2.30;;
15177;SDS011;7689;53.612;-2.416;2022-10-31T13:04:11;10.82;;;2.75;;
15177;SDS011;7689;53.612;-2.416;2022-10-31T13:06:50;5.90;;;2.53;;
15177;SDS011;7689;53.612;-2.416;2022-10-31T13:09:22;11.45;;;3.22;;
15177;SDS011;7689;53.612;-2.416;2022-10-31T13:11:58;5.97;;;2.47;;
15177;SDS011;7689;53.612;-2.416;2022-10-31T13:14:33;5.70;;;2.53;;
15177;SDS011;7689;53.612;-2.416;2022-10-31T13:17:06;5.25;;;2.55;;
15177;SDS011;7689;53.612;-2.416;2022-10-31T13:19:43;10.18;;;2.58;;
15177;SDS011;7689;53.612;-2.416;2022-10-31T13:25:09;0.57;;;0.55;;
15177;SDS011;7689;53.612;-2.416;2022-10-31T13:30:26;2.72;;;1.08;;
15177;SDS011;7689;53.612;-2.416;2022-10-31T13:38:39;3.53;;;1.70;;
15177;SDS011;7689;53.612;-2.416;2022-10-31T13:48:55;8.27;;;2.40;;
15177;SDS011;7689;53.612;-2.416;2022-10-31T13:51:25;8.23;;;2.40;;
15177;SDS011;7689;53.612;-2.416;2022-10-31T13:54:06;5.43;;;2.40;;
15177;SDS011;7689;53.612;-2.416;2022-10-31T13:56:48;15.30;;;3.00;;
15177;SDS011;7689;53.612;-2.416;2022-10-31T13:59:19;10.30;;;3.10;;
15177;SDS011;7689;53.612;-2.416;2022-10-31T14:01:53;10.60;;;2.60;;
15177;SDS011;7689;53.612;-2.416;2022-10-31T14:04:31;8.20;;;3.00;;
15177;SDS011;7689;53.612;-2.416;2022-10-31T14:12:45;8.02;;;2.67;;
15177;SDS011;7689;53.612;-2.416;2022-10-31T14:14:55;7.93;;;2.50;;
15177;SDS011;7689;53.612;-2.416;2022-10-31T14:17:27;8.75;;;2.35;;
15177;SDS011;7689;53.612;-2.416;2022-10-31T14:22:35;10.15;;;3.28;;
15177;SDS011;7689;53.612;-2.416;2022-10-31T14:28:03;11.43;;;3.33;;
15177;SDS011;7689;53.612;-2.416;2022-10-31T14:30:53;17.58;;;3.40;;
15177;SDS011;7689;53.612;-2.416;2022-10-31T14:33:19;13.68;;;3.33;;
15177;SDS011;7689;53.612;-2.416;2022-10-31T14:46:26;12.80;;;2.88;;
15177;SDS011;7689;53.612;-2.416;2022-10-31T14:52:02;7.47;;;2.30;;
15177;SDS011;7689;53.612;-2.416;2022-10-31T14:54:38;8.50;;;2.80;;
15177;SDS011;7689;53.612;-2.416;2022-10-31T14:57:12;8.98;;;2.88;;
15177;SDS011;7689;53.612;-2.416;2022-10-31T14:59:49;8.70;;;3.08;;
15177;SDS011;7689;53.612;-2.416;2022-10-31T15:04:53;8.25;;;2.70;;
15177;SDS011;7689;53.612;-2.416;2022-10-31T15:07:24;9.55;;;2.88;;
15177;SDS011;7689;53.612;-2.416;2022-10-31T15:10:00;12.75;;;2.88;;
15177;SDS011;7689;53.612;-2.416;2022-10-31T15:12:29;9.07;;;2.90;;
15177;SDS011;7689;53.612;-2.416;2022-10-31T15:14:57;10.02;;;3.03;;
15177;SDS011;7689;53.612;-2.416;2022-10-31T15:17:35;7.20;;;2.33;;
15177;SDS011;7689;53.612;-2.416;2022-10-31T15:20:01;10.05;;;3.53;;
15177;SDS011;7689;53.612;-2.416;2022-10-31T15:22:28;6.53;;;2.83;;
15177;SDS011;7689;53.612;-2.416;2022-10-31T15:24:56;12.15;;;3.15;;
15177;SDS011;7689;53.612;-2.416;2022-10-31T15:27:23;4.45;;;2.42;;
15177;SDS011;7689;53.612;-2.416;2022-10-31T15:32:23;6.32;;;2.20;;
15177;SDS011;7689;53.612;-2.416;2022-10-31T15:34:51;8.90;;;2.38;;
15177;SDS011;7689;53.612;-2.416;2022-10-31T15:37:21;7.57;;;2.90;;
15177;SDS011;7689;53.612;-2.416;2022-10-31T15:39:49;5.55;;;2.17;;
15177;SDS011;7689;53.612;-2.416;2022-10-31T15:44:52;10.68;;;3.05;;
15177;SDS011;7689;53.612;-2.416;2022-10-31T15:47:28;9.77;;;2.45;;
15177;SDS011;7689;53.612;-2.416;2022-10-31T15:49:56;8.20;;;2.70;;
15177;SDS011;7689;53.612;-2.416;2022-10-31T15:57:51;9.75;;;2.80;;
15177;SDS011;7689;53.612;-2.416;2022-10-31T16:02:49;8.68;;;2.38;;
15177;SDS011;7689;53.612;-2.416;2022-10-31T16:05:16;5.70;;;2.90;;
15177;SDS011;7689;53.612;-2.416;2022-10-31T16:07:50;9.65;;;2.83;;
15177;SDS011;7689;53.612;-2.416;2022-10-31T16:10:23;4.15;;;2.55;;
15177;SDS011;7689;53.612;-2.416;2022-10-31T16:12:50;6.88;;;3.08;;
15177;SDS011;7689;53.612;-2.416;2022-10-31T16:15:18;5.25;;;2.50;;
15177;SDS011;7689;53.612;-2.416;2022-10-31T16:17:46;7.32;;;3.05;;
15177;SDS011;7689;53.612;-2.416;2022-10-31T16:20:29;4.63;;;2.55;;
15177;SDS011;7689;53.612;-2.416;2022-10-31T16:23:02;7.75;;;3.25;;
15177;SDS011;7689;53.612;-2.416;2022-10-31T16:28:03;5.85;;;2.72;;
15177;SDS011;7689;53.612;-2.416;2022-10-31T16:30:39;7.43;;;3.00;;
15177;SDS011;7689;53.612;-2.416;2022-10-31T16:35:58;6.75;;;2.90;;
15177;SDS011;7689;53.612;-2.416;2022-10-31T16:38:27;8.02;;;3.17;;
15177;SDS011;7689;53.612;-2.416;2022-10-31T16:40:52;9.85;;;3.33;;
15177;SDS011;7689;53.612;-2.416;2022-10-31T16:43:19;6.30;;;3.13;;
15177;SDS011;7689;53.612;-2.416;2022-10-31T16:45:46;9.23;;;3.40;;
15177;SDS011;7689;53.612;-2.416;2022-10-31T16:48:14;6.97;;;3.28;;
15177;SDS011;7689;53.612;-2.416;2022-10-31T16:50:45;8.75;;;3.35;;
15177;SDS011;7689;53.612;-2.416;2022-10-31T16:53:12;8.50;;;3.33;;
15177;SDS011;7689;53.612;-2.416;2022-10-31T16:58:24;8.32;;;3.70;;
15177;SDS011;7689;53.612;-2.416;2022-10-31T17:00:52;13.00;;;4.03;;
15177;SDS011;7689;53.612;-2.416;2022-10-31T17:03:19;9.68;;;3.38;;
15177;SDS011;7689;53.612;-2.416;2022-10-31T17:05:45;6.15;;;3.10;;
15177;SDS011;7689;53.612;-2.416;2022-10-31T17:08:11;8.90;;;3.78;;
15177;SDS011;7689;53.612;-2.416;2022-10-31T17:10:37;10.02;;;3.83;;
15177;SDS011;7689;53.612;-2.416;2022-10-31T17:13:04;10.15;;;3.72;;
15177;SDS011;7689;53.612;-2.416;2022-10-31T17:15:35;11.50;;;3.60;;
15177;SDS011;7689;53.612;-2.416;2022-10-31T17:18:10;8.63;;;2.83;;
15177;SDS011;7689;53.612;-2.416;2022-10-31T17:20:40;9.93;;;3.40;;
15177;SDS011;7689;53.612;-2.416;2022-10-31T17:23:08;8.43;;;2.80;;
15177;SDS011;7689;53.612;-2.416;2022-10-31T17:25:35;6.85;;;3.08;;
15177;SDS011;7689;53.612;-2.416;2022-10-31T17:28:01;10.20;;;3.03;;
15177;SDS011;7689;53.612;-2.416;2022-10-31T17:30:27;6.68;;;2.60;;
15177;SDS011;7689;53.612;-2.416;2022-10-31T17:32:52;10.40;;;3.13;;
15177;SDS011;7689;53.612;-2.416;2022-10-31T17:35:19;6.40;;;3.15;;
15177;SDS011;7689;53.612;-2.416;2022-10-31T17:37:45;13.77;;;3.70;;
15177;SDS011;7689;53.612;-2.416;2022-10-31T17:40:13;7.32;;;3.08;;
15177;SDS011;7689;53.612;-2.416;2022-10-31T17:42:41;6.50;;;2.73;;
15177;SDS011;7689;53.612;-2.416;2022-10-31T17:45:07;9.00;;;3.05;;
15177;SDS011;7689;53.612;-2.416;2022-10-31T17:47:33;5.43;;;2.80;;
15177;SDS011;7689;53.612;-2.416;2022-10-31T17:49:59;11.30;;;4.00;;